Time;durP1;ratioP1;P1;durP2;ratioP2;P2;SDS_P1;SDS_P2;PMS_P1;PMS_P2;Temp;Humidity;BMP_temperature;BMP_pressure;BME280_temperature;BME280_humidity;BME280_pressure;Samples;Min_cycle;Max_cycle;Signal;HPM_P1;HPM_P2
2023/07/17 00:01:34;;;;;;;3.30;0.90;;;16.90;99.90;;;;;;4971630;28;20789;-85
2023/07/17 00:04:00;;;;;;;2.23;1.00;;;16.90;99.90;;;;;;4980718;28;20217;-85
2023/07/17 00:06:26;;;;;;;3.27;1.23;;;16.90;99.90;;;;;;4952497;28;20232;-85
2023/07/17 00:08:52;;;;;;;0.90;0.73;;;16.90;99.90;;;;;;4952850;28;20500;-85
2023/07/17 00:11:18;;;;;;;2.17;1.17;;;16.90;99.90;;;;;;4969094;28;20705;-85
2023/07/17 00:13:43;;;;;;;4.87;1.20;;;16.90;99.90;;;;;;4935772;28;20230;-85
2023/07/17 00:16:09;;;;;;;5.80;1.13;;;17.00;99.90;;;;;;4925663;28;20247;-85
2023/07/17 00:18:35;;;;;;;11.77;1.20;;;17.00;99.90;;;;;;4956837;28;20691;-85
2023/07/17 00:21:01;;;;;;;4.33;1.40;;;17.00;99.90;;;;;;4990651;28;20560;-86
2023/07/17 00:23:27;;;;;;;3.60;1.00;;;17.10;99.90;;;;;;4973041;28;20304;-85
2023/07/17 00:25:53;;;;;;;2.50;1.20;;;17.10;99.90;;;;;;4939757;28;20319;-86
2023/07/17 00:28:19;;;;;;;9.60;1.27;;;17.10;99.90;;;;;;4982499;28;20298;-85
2023/07/17 00:30:45;;;;;;;11.60;1.63;;;17.10;99.90;;;;;;4974653;28;20223;-86
2023/07/17 00:33:11;;;;;;;5.03;1.03;;;17.00;99.90;;;;;;4975561;28;20187;-86
2023/07/17 00:35:37;;;;;;;6.60;1.33;;;17.10;99.90;;;;;;4975826;28;20228;-85
2023/07/17 00:38:04;;;;;;;4.23;1.40;;;17.10;99.90;;;;;;4927467;28;20414;-85
2023/07/17 00:40:30;;;;;;;6.40;2.30;;;17.10;99.90;;;;;;4996587;28;20277;-84
2023/07/17 00:43:00;;;;;;;1.30;1.17;;;17.10;99.90;;;;;;4978905;28;20215;-84
2023/07/17 00:45:29;;;;;;;4.90;1.60;;;17.10;99.90;;;;;;4978785;28;20319;-86
2023/07/17 00:47:55;;;;;;;8.67;1.43;;;17.10;99.90;;;;;;4995305;28;20176;-85
2023/07/17 00:50:24;;;;;;;3.23;1.53;;;17.10;99.90;;;;;;4994805;28;20285;-84
2023/07/17 00:52:50;;;;;;;7.77;1.77;;;17.10;99.90;;;;;;4978991;28;20673;-84
2023/07/17 00:55:18;;;;;;;8.70;1.47;;;17.10;99.90;;;;;;4978606;28;20281;-86
2023/07/17 00:57:44;;;;;;;3.67;1.40;;;17.00;99.90;;;;;;4978616;28;20294;-85
2023/07/17 01:00:12;;;;;;;4.43;2.03;;;17.00;99.90;;;;;;5012036;28;20587;-84
2023/07/17 01:02:39;;;;;;;6.43;2.20;;;17.00;99.90;;;;;;5012376;28;20175;-85
2023/07/17 01:05:05;;;;;;;3.60;1.30;;;17.00;99.90;;;;;;4994600;28;20254;-86
2023/07/17 01:07:31;;;;;;;1.40;1.17;;;17.00;99.90;;;;;;4978288;28;20296;-85
2023/07/17 01:09:57;;;;;;;2.43;0.97;;;17.00;99.90;;;;;;4994760;28;20405;-86
2023/07/17 01:12:23;;;;;;;4.53;1.37;;;16.90;99.90;;;;;;4994589;28;20223;-85
2023/07/17 01:14:49;;;;;;;6.17;1.63;;;16.90;99.90;;;;;;4994842;28;20653;-84
2023/07/17 01:17:16;;;;;;;9.30;2.43;;;16.90;99.90;;;;;;4978337;28;20219;-85
2023/07/17 01:19:41;;;;;;;5.70;1.57;;;16.90;99.90;;;;;;4994068;28;20223;-84
2023/07/17 01:22:23;;;;;;;1.23;0.93;;;16.80;99.90;;;;;;4977160;28;20222;-86
2023/07/17 01:24:48;;;;;;;7.23;2.00;;;16.80;99.90;;;;;;5011597;28;20744;-86
2023/07/17 01:27:15;;;;;;;4.13;1.20;;;16.70;99.90;;;;;;4993883;28;20302;-86
2023/07/17 01:29:40;;;;;;;12.20;1.60;;;16.70;99.90;;;;;;4979079;28;20176;-85
2023/07/17 01:32:07;;;;;;;1.67;1.30;;;16.70;99.90;;;;;;4993198;28;20567;-85
2023/07/17 01:34:32;;;;;;;3.90;1.87;;;16.70;99.90;;;;;;4994276;28;20235;-85
2023/07/17 01:36:58;;;;;;;5.97;1.77;;;16.70;99.90;;;;;;4977922;28;20386;-85
2023/07/17 01:39:24;;;;;;;4.37;1.87;;;16.70;99.90;;;;;;4977936;28;20215;-86
2023/07/17 01:41:50;;;;;;;5.37;2.13;;;16.70;99.90;;;;;;5012131;28;20207;-86
2023/07/17 01:44:16;;;;;;;6.67;2.13;;;16.70;99.90;;;;;;4977575;28;20650;-85
2023/07/17 01:46:42;;;;;;;6.20;1.50;;;16.70;99.90;;;;;;4994139;28;20238;-84
2023/07/17 01:49:07;;;;;;;7.53;2.40;;;16.70;99.90;;;;;;4977838;28;20219;-85
2023/07/17 01:51:33;;;;;;;4.43;1.30;;;16.80;99.90;;;;;;4994243;28;20234;-85
2023/07/17 01:53:59;;;;;;;2.57;1.20;;;16.70;99.90;;;;;;4978460;28;20184;-86
2023/07/17 01:56:25;;;;;;;3.40;1.03;;;16.80;99.90;;;;;;4977933;28;20584;-85
2023/07/17 01:58:51;;;;;;;5.53;1.93;;;16.70;99.90;;;;;;4993958;28;20243;-86
2023/07/17 02:01:17;;;;;;;2.70;1.57;;;16.70;99.90;;;;;;4977457;28;20475;-86
2023/07/17 02:03:42;;;;;;;14.53;2.83;;;16.80;99.90;;;;;;4993988;28;20575;-86
2023/07/17 02:06:08;;;;;;;6.57;1.47;;;16.70;99.90;;;;;;4993506;28;20246;-85
2023/07/17 02:08:34;;;;;;;4.73;1.53;;;16.70;99.90;;;;;;4994367;28;20274;-86
2023/07/17 02:11:00;;;;;;;7.07;1.23;;;16.70;99.90;;;;;;4977380;28;20243;-86
2023/07/17 02:13:26;;;;;;;7.93;1.73;;;16.70;99.90;;;;;;4992534;28;20239;-85
2023/07/17 02:15:51;;;;;;;6.63;2.03;;;16.70;99.90;;;;;;4993313;28;20759;-85
2023/07/17 02:18:17;;;;;;;4.63;1.70;;;16.70;99.90;;;;;;4993234;28;20195;-86
2023/07/17 02:20:43;;;;;;;11.07;2.27;;;16.80;99.90;;;;;;4978339;28;20199;-86
2023/07/17 02:23:09;;;;;;;2.60;2.13;;;16.80;99.90;;;;;;4993252;28;20774;-86
2023/07/17 02:25:34;;;;;;;4.37;1.27;;;16.80;99.90;;;;;;4993123;28;20230;-85
2023/07/17 02:28:00;;;;;;;12.60;1.73;;;16.70;99.90;;;;;;4993204;28;20587;-86
2023/07/17 02:30:26;;;;;;;3.33;2.23;;;16.80;99.90;;;;;;4993071;28;20237;-85
2023/07/17 02:32:52;;;;;;;8.23;1.50;;;16.80;99.90;;;;;;4993790;28;20200;-85
2023/07/17 02:35:18;;;;;;;4.03;1.40;;;16.80;99.90;;;;;;4944725;28;20236;-86
2023/07/17 02:37:43;;;;;;;8.10;1.83;;;16.80;99.90;;;;;;4989514;28;20224;-85
2023/07/17 02:40:10;;;;;;;5.60;1.43;;;16.70;99.90;;;;;;4973590;28;20219;-86
2023/07/17 02:42:37;;;;;;;6.57;1.83;;;16.70;99.90;;;;;;4957486;28;20262;-85
2023/07/17 02:45:04;;;;;;;9.53;2.43;;;16.60;99.90;;;;;;4974156;28;20172;-86
2023/07/17 02:47:30;;;;;;;10.23;2.40;;;16.60;99.90;;;;;;4986758;28;20319;-86
2023/07/17 02:49:56;;;;;;;4.53;1.93;;;16.60;99.90;;;;;;4937890;28;20304;-85
2023/07/17 02:52:21;;;;;;;4.10;2.10;;;16.50;99.90;;;;;;4938055;28;20711;-86
2023/07/17 02:54:47;;;;;;;3.53;1.43;;;16.50;99.90;;;;;;4959715;28;20683;-84
2023/07/17 02:57:14;;;;;;;6.60;2.17;;;16.40;99.90;;;;;;4972041;28;20307;-85
2023/07/17 02:59:40;;;;;;;4.83;1.70;;;16.40;99.90;;;;;;4954593;28;20180;-85
2023/07/17 03:02:06;;;;;;;6.13;2.20;;;16.40;99.90;;;;;;4952809;28;20248;-84
2023/07/17 03:04:32;;;;;;;11.50;3.10;;;16.40;99.90;;;;;;4936767;28;20833;-85
2023/07/17 03:06:58;;;;;;;4.07;1.57;;;16.40;99.90;;;;;;4953009;28;20288;-84
2023/07/17 03:09:25;;;;;;;12.13;2.10;;;16.30;99.90;;;;;;4970490;28;20315;-84
2023/07/17 03:11:51;;;;;;;12.20;2.67;;;16.30;99.90;;;;;;4938217;28;20269;-85
2023/07/17 03:14:17;;;;;;;3.93;2.43;;;16.30;99.90;;;;;;4969453;28;20590;-85
2023/07/17 03:16:43;;;;;;;5.03;1.43;;;16.20;99.90;;;;;;4953136;28;20653;-84
2023/07/17 03:19:09;;;;;;;6.40;2.27;;;16.20;99.90;;;;;;4953357;28;20220;-85
2023/07/17 03:21:35;;;;;;;9.47;2.77;;;16.10;99.90;;;;;;4953474;28;20224;-85
2023/07/17 03:24:01;;;;;;;5.33;1.90;;;16.10;99.90;;;;;;4953815;28;20214;-84
2023/07/17 03:26:27;;;;;;;14.83;2.33;;;16.10;99.90;;;;;;4970419;28;20224;-85
2023/07/17 03:28:53;;;;;;;7.33;2.30;;;16.10;99.90;;;;;;4970052;28;20636;-83
2023/07/17 03:31:19;;;;;;;6.70;2.50;;;16.10;99.90;;;;;;4969155;28;20213;-85
2023/07/17 03:33:44;;;;;;;15.67;3.07;;;16.10;99.90;;;;;;4972477;28;20392;-85
2023/07/17 03:36:10;;;;;;;8.70;1.53;;;16.10;99.90;;;;;;4972434;28;20185;-85
2023/07/17 03:38:36;;;;;;;10.33;2.07;;;16.20;99.90;;;;;;4973024;28;20177;-85
2023/07/17 03:41:03;;;;;;;7.83;2.43;;;16.20;99.90;;;;;;4972285;28;20634;-85
2023/07/17 03:43:28;;;;;;;5.07;2.43;;;16.30;99.90;;;;;;4989512;28;20365;-85
2023/07/17 03:45:54;;;;;;;6.83;2.30;;;16.30;99.90;;;;;;4972640;28;20700;-85
2023/07/17 03:48:20;;;;;;;5.17;2.03;;;16.30;99.90;;;;;;4972508;28;20315;-84
2023/07/17 03:50:47;;;;;;;13.13;2.30;;;16.40;99.90;;;;;;4989342;28;20584;-85
2023/07/17 03:53:13;;;;;;;9.33;2.30;;;16.30;99.90;;;;;;4988271;28;20226;-85
2023/07/17 03:55:45;;;;;;;4.63;2.00;;;16.40;99.90;;;;;;4974143;28;20808;-87
2023/07/17 03:58:11;;;;;;;7.87;3.87;;;16.50;99.90;;;;;;4991616;28;20294;-87
2023/07/17 04:00:37;;;;;;;6.17;2.33;;;16.50;99.90;;;;;;4977026;28;20299;-88
2023/07/17 04:03:03;;;;;;;7.13;3.00;;;16.50;99.90;;;;;;4978156;28;20223;-87
2023/07/17 04:05:29;;;;;;;4.93;2.13;;;16.40;99.90;;;;;;4977295;28;20263;-87
2023/07/17 04:07:56;;;;;;;3.30;1.50;;;16.20;99.90;;;;;;4973114;28;20235;-86
2023/07/17 04:10:23;;;;;;;11.33;3.33;;;16.20;99.90;;;;;;4941750;28;20226;-85
2023/07/17 04:12:49;;;;;;;9.43;2.40;;;16.20;99.90;;;;;;4957462;28;20235;-86
2023/07/17 04:15:15;;;;;;;5.07;2.70;;;16.30;99.90;;;;;;4957411;28;20217;-86
2023/07/17 04:24:49;;;;;;;10.97;2.03;;;16.20;99.90;;;;;;4955762;28;20185;-87
2023/07/17 04:27:15;;;;;;;3.33;1.67;;;16.20;99.90;;;;;;4942529;28;20213;-88
2023/07/17 04:29:48;;;;;;;6.47;1.50;;;16.10;99.90;;;;;;4927375;28;20176;-88
2023/07/17 04:32:30;;;;;;;;;;;;;;;;;;;;;
2023/07/17 04:34:59;;;;;;;3.93;1.80;;;15.80;99.90;;;;;;4974366;28;20239;-86
2023/07/17 04:37:25;;;;;;;2.53;1.63;;;15.70;99.90;;;;;;4958035;28;20180;-88
2023/07/17 04:39:54;;;;;;;3.47;1.10;;;15.60;99.90;;;;;;4957874;28;20553;-89
2023/07/17 04:42:20;;;;;;;3.93;1.67;;;15.60;99.90;;;;;;4957238;28;20642;-85
2023/07/17 04:44:46;;;;;;;5.33;2.50;;;15.50;99.90;;;;;;4957569;28;20191;-85
2023/07/17 04:47:12;;;;;;;5.50;2.07;;;15.50;99.90;;;;;;4957337;28;20213;-87
2023/07/17 04:49:38;;;;;;;4.23;1.80;;;15.60;99.90;;;;;;4955548;28;20576;-87
2023/07/17 04:52:04;;;;;;;10.13;2.47;;;15.60;99.90;;;;;;4956900;28;20184;-86
2023/07/17 04:54:30;;;;;;;9.07;2.57;;;15.60;99.90;;;;;;4957406;28;20696;-86
2023/07/17 04:56:56;;;;;;;7.47;1.97;;;15.70;99.90;;;;;;4957084;28;20276;-86
2023/07/17 04:59:22;;;;;;;6.40;2.73;;;15.70;99.90;;;;;;4973015;28;20200;-85
2023/07/17 05:01:47;;;;;;;4.47;2.23;;;15.80;99.90;;;;;;4956858;28;20184;-85
2023/07/17 05:04:13;;;;;;;6.27;1.97;;;15.80;99.90;;;;;;4940519;28;20402;-85
2023/07/17 05:06:39;;;;;;;5.93;1.73;;;15.80;99.90;;;;;;4955574;28;20334;-85
2023/07/17 05:09:05;;;;;;;2.30;1.87;;;15.80;99.90;;;;;;4956354;28;20336;-83
2023/07/17 05:11:32;;;;;;;6.40;2.60;;;15.90;99.90;;;;;;4972799;28;20235;-85
2023/07/17 05:13:58;;;;;;;5.70;2.27;;;16.00;99.90;;;;;;4956503;28;20185;-85
2023/07/17 05:16:24;;;;;;;7.17;2.47;;;16.20;99.90;;;;;;4940317;28;20748;-85
2023/07/17 05:18:49;;;;;;;5.23;2.40;;;16.20;99.90;;;;;;4956138;28;20212;-86
2023/07/17 05:21:17;;;;;;;4.50;1.47;;;16.20;99.90;;;;;;4940365;28;20192;-85
2023/07/17 05:23:42;;;;;;;5.43;1.67;;;16.20;99.90;;;;;;4956074;28;20177;-85
2023/07/17 05:26:08;;;;;;;4.43;1.67;;;16.00;99.90;;;;;;4955861;28;20573;-84
2023/07/17 05:28:34;;;;;;;2.60;1.90;;;15.90;99.90;;;;;;4939558;28;20642;-83
2023/07/17 05:31:00;;;;;;;4.83;1.87;;;15.80;99.90;;;;;;4939562;28;20188;-84
2023/07/17 05:33:26;;;;;;;5.63;2.27;;;15.90;99.90;;;;;;4955277;28;20177;-84
2023/07/17 05:35:52;;;;;;;5.20;2.33;;;16.00;99.90;;;;;;4955653;28;20185;-85
2023/07/17 05:38:18;;;;;;;11.73;3.10;;;16.00;99.90;;;;;;4955430;28;20184;-84
2023/07/17 05:40:44;;;;;;;7.20;2.43;;;16.00;99.90;;;;;;4954109;28;20185;-85
2023/07/17 05:43:10;;;;;;;5.97;2.40;;;16.20;99.90;;;;;;4954900;28;20255;-85
2023/07/17 05:45:36;;;;;;;10.67;3.00;;;18.30;99.90;;;;;;4954812;28;20584;-84
2023/07/17 05:48:02;;;;;;;11.17;3.10;;;19.80;99.90;;;;;;4954964;28;20260;-84
2023/07/17 05:50:28;;;;;;;7.47;2.20;;;21.40;99.90;;;;;;4939383;28;20184;-84
2023/07/17 05:52:54;;;;;;;4.37;2.23;;;22.40;99.90;;;;;;4939172;28;20194;-85
2023/07/17 05:55:20;;;;;;;2.13;1.37;;;22.00;99.90;;;;;;4939119;28;20630;-86
2023/07/17 05:57:45;;;;;;;5.67;1.60;;;22.60;99.90;;;;;;4954610;28;20620;-86
2023/07/17 06:00:14;;;;;;;9.37;2.73;;;21.60;99.90;;;;;;4953808;28;20191;-85
2023/07/17 06:02:44;;;;;;;4.30;1.77;;;20.80;99.90;;;;;;4938886;28;20193;-87
2023/07/17 06:05:10;;;;;;;4.20;2.20;;;19.80;99.90;;;;;;4953713;28;20177;-86
2023/07/17 06:07:37;;;;;;;1.50;1.03;;;19.10;99.90;;;;;;4953581;28;20217;-84
2023/07/17 06:10:03;;;;;;;3.20;1.73;;;18.80;99.90;;;;;;4954769;28;20185;-85
2023/07/17 06:12:29;;;;;;;1.57;1.30;;;18.50;99.90;;;;;;4954181;28;20189;-84
2023/07/17 06:14:55;;;;;;;2.17;1.50;;;18.20;99.90;;;;;;4954373;28;20187;-85
2023/07/17 06:17:22;;;;;;;1.10;1.00;;;18.30;99.90;;;;;;4953577;28;20666;-84
2023/07/17 06:19:48;;;;;;;1.87;0.93;;;18.00;99.90;;;;;;4953617;28;20626;-84
2023/07/17 06:22:14;;;;;;;3.27;1.67;;;17.90;99.90;;;;;;4938166;28;20241;-85
2023/07/17 06:24:39;;;;;;;6.77;1.63;;;18.20;99.90;;;;;;4938305;28;20656;-84
2023/07/17 06:27:06;;;;;;;4.43;1.57;;;18.50;99.90;;;;;;4954554;28;20624;-91
2023/07/17 06:29:31;;;;;;;3.77;1.70;;;19.00;99.90;;;;;;4939665;28;20184;-87
2023/07/17 06:31:57;;;;;;;8.97;1.93;;;21.40;99.90;;;;;;4955287;28;20275;-88
2023/07/17 06:34:23;;;;;;;4.67;1.53;;;24.10;99.90;;;;;;4959641;28;20240;-89
2023/07/17 06:36:50;;;;;;;4.97;1.57;;;25.70;99.90;;;;;;4938574;28;20184;-89
2023/07/17 06:39:16;;;;;;;2.33;1.80;;;23.60;99.90;;;;;;4971321;28;20177;-89
2023/07/17 06:41:42;;;;;;;3.43;1.70;;;21.80;99.90;;;;;;4954355;28;20291;-88
2023/07/17 06:44:08;;;;;;;2.53;1.30;;;20.90;99.90;;;;;;4954398;28;20694;-89
2023/07/17 06:46:33;;;;;;;5.33;1.80;;;21.70;99.90;;;;;;4954905;28;20256;-89
2023/07/17 06:48:59;;;;;;;3.07;1.63;;;23.70;99.90;;;;;;4923675;28;20271;-90
2023/07/17 06:51:25;;;;;;;3.15;1.70;;;23.80;99.90;;;;;;4971201;28;20645;-89
2023/07/17 06:53:52;;;;;;;2.03;1.05;;;24.10;99.90;;;;;;4954874;28;20181;-88
2023/07/17 06:56:18;;;;;;;3.35;2.20;;;22.80;99.90;;;;;;4971891;28;20181;-88
2023/07/17 06:58:44;;;;;;;1.63;1.50;;;21.70;99.90;;;;;;4954695;28;20537;-87
2023/07/17 07:01:11;;;;;;;5.20;3.30;;;21.90;99.90;;;;;;4938406;28;20547;-89
2023/07/17 07:03:37;;;;;;;4.90;2.67;;;21.20;99.90;;;;;;4954909;28;20181;-89
2023/07/17 07:06:06;;;;;;;7.47;2.33;;;20.00;99.90;;;;;;4971564;28;20263;-85
2023/07/17 07:08:32;;;;;;;5.03;1.63;;;19.10;99.90;;;;;;4955181;28;20189;-88
2023/07/17 07:10:59;;;;;;;3.57;1.90;;;19.40;99.90;;;;;;4971763;28;20344;-90
2023/07/17 07:13:26;;;;;;;2.57;1.17;;;19.30;99.90;;;;;;4954711;28;20454;-88
2023/07/17 07:15:52;;;;;;;8.60;2.20;;;19.60;99.90;;;;;;4971704;28;20194;-90
2023/07/17 07:18:19;;;;;;;3.13;1.57;;;20.10;99.90;;;;;;4971592;28;20210;-87
2023/07/17 07:20:46;;;;;;;4.03;1.43;;;21.10;99.90;;;;;;4954620;28;20351;-90
2023/07/17 07:23:11;;;;;;;4.53;1.47;;;22.00;99.90;;;;;;4954784;28;20514;-90
2023/07/17 07:25:37;;;;;;;4.47;1.50;;;22.20;99.90;;;;;;4969488;28;22088;-86
2023/07/17 07:28:04;;;;;;;5.00;2.00;;;23.40;99.90;;;;;;4971121;28;20177;-87
2023/07/17 07:30:30;;;;;;;4.43;1.70;;;23.90;99.90;;;;;;4953834;28;20184;-93
2023/07/17 07:32:56;;;;;;;6.68;1.98;;;24.60;99.90;;;;;;4969703;28;20181;-91
2023/07/17 07:35:22;;;;;;;3.58;2.25;;;25.70;99.90;;;;;;4970468;28;20485;-95
2023/07/17 07:37:48;;;;;;;2.13;1.20;;;26.40;99.90;;;;;;4953260;28;20184;-91
2023/07/17 07:40:15;;;;;;;3.58;1.67;;;24.30;99.90;;;;;;4970236;28;20184;-90
2023/07/17 07:42:42;;;;;;;2.80;1.27;;;22.60;99.90;;;;;;4953721;28;20173;-89
2023/07/17 07:45:11;;;;;;;5.00;1.40;;;21.80;99.90;;;;;;4954583;28;20189;-93
2023/07/17 07:47:37;;;;;;;2.55;1.85;;;21.10;99.90;;;;;;4954991;28;20216;-90
2023/07/17 07:50:07;;;;;;;2.95;1.38;;;20.80;99.90;;;;;;4970680;28;20213;-91
2023/07/17 07:52:33;;;;;;;3.88;1.52;;;22.00;99.90;;;;;;4972748;28;20257;-90
2023/07/17 07:55:02;;;;;;;1.58;1.20;;;23.70;99.90;;;;;;4939377;28;20185;-90
2023/07/17 07:57:27;;;;;;;2.92;1.85;;;24.10;99.90;;;;;;4972504;28;20256;-88
2023/07/17 07:59:53;;;;;;;7.22;1.40;;;22.60;99.90;;;;;;4953975;28;20177;-90
2023/07/17 08:02:19;;;;;;;2.05;1.20;;;22.20;99.90;;;;;;4969845;28;20173;-88
2023/07/17 08:04:45;;;;;;;4.15;1.48;;;23.70;99.90;;;;;;4972239;28;20569;-92
2023/07/17 08:07:11;;;;;;;2.55;1.80;;;24.40;99.90;;;;;;4953399;28;20204;-87
2023/07/17 08:09:37;;;;;;;1.10;1.00;;;23.90;99.90;;;;;;4953321;28;20181;-88
2023/07/17 08:12:04;;;;;;;1.75;1.10;;;23.80;99.90;;;;;;4952424;28;20262;-86
2023/07/17 08:14:30;;;;;;;1.92;1.13;;;24.20;99.90;;;;;;4952413;28;20569;-87
2023/07/17 08:16:55;;;;;;;3.35;1.45;;;25.20;99.90;;;;;;4952355;28;20256;-87
2023/07/17 08:19:21;;;;;;;2.92;0.90;;;26.10;99.90;;;;;;4936282;28;20492;-88
2023/07/17 08:21:47;;;;;;;3.58;1.65;;;25.20;99.90;;;;;;4952304;28;20244;-86
2023/07/17 08:24:12;;;;;;;2.22;1.17;;;24.50;99.90;;;;;;4952663;28;20804;-88
2023/07/17 08:26:39;;;;;;;2.15;1.50;;;25.50;99.90;;;;;;4969620;28;20212;-86
2023/07/17 08:29:05;;;;;;;3.70;1.50;;;24.90;99.90;;;;;;4952785;28;20762;-90
2023/07/17 08:31:32;;;;;;;5.00;1.65;;;25.30;99.90;;;;;;4952488;28;20192;-86
2023/07/17 08:33:58;;;;;;;4.35;1.08;;;24.50;99.90;;;;;;4958080;28;20224;-86
2023/07/17 08:36:27;;;;;;;3.58;1.50;;;24.50;99.90;;;;;;4955942;28;20188;-89
2023/07/17 08:38:53;;;;;;;5.00;1.42;;;25.20;99.90;;;;;;4956438;28;20188;-87
2023/07/17 08:41:19;;;;;;;7.45;1.70;;;25.20;99.90;;;;;;4972290;28;20552;-85
2023/07/17 08:43:45;;;;;;;2.25;1.20;;;25.50;99.90;;;;;;4959182;28;20180;-86
2023/07/17 08:46:12;;;;;;;3.97;1.48;;;23.80;99.90;;;;;;4974908;28;20416;-87
2023/07/17 08:48:40;;;;;;;4.38;1.75;;;24.80;99.90;;;;;;4975511;28;20312;-88
2023/07/17 08:51:09;;;;;;;3.10;1.30;;;24.30;99.90;;;;;;4975905;28;20204;-86
2023/07/17 08:53:36;;;;;;;4.95;1.40;;;22.70;99.90;;;;;;4992389;28;20283;-85
2023/07/17 08:56:03;;;;;;;2.15;1.17;;;22.30;99.90;;;;;;4959481;28;20231;-88
2023/07/17 08:58:29;;;;;;;4.70;1.80;;;22.40;99.90;;;;;;4991985;28;20184;-86
2023/07/17 09:00:55;;;;;;;2.90;1.40;;;22.10;99.90;;;;;;4958621;28;20180;-86
2023/07/17 09:03:21;;;;;;;2.25;1.48;;;22.90;99.90;;;;;;4974481;28;20176;-86
2023/07/17 09:05:47;;;;;;;2.70;1.40;;;24.10;99.90;;;;;;4959053;28;20822;-85
2023/07/17 09:08:13;;;;;;;3.03;1.27;;;24.60;99.90;;;;;;4958188;28;20669;-86
2023/07/17 09:10:39;;;;;;;5.40;2.05;;;22.80;99.90;;;;;;4992196;28;20176;-85
2023/07/17 09:13:05;;;;;;;2.85;1.13;;;21.50;99.90;;;;;;4992059;28;20204;-88
2023/07/17 09:15:33;;;;;;;8.48;1.63;;;21.80;99.90;;;;;;4974637;28;20176;-89
2023/07/17 09:18:00;;;;;;;1.40;1.10;;;22.10;99.90;;;;;;4975034;28;20172;-86
2023/07/17 09:20:26;;;;;;;5.50;1.30;;;23.00;99.90;;;;;;4992245;28;20185;-87
2023/07/17 09:22:57;;;;;;;1.85;0.88;;;22.90;99.90;;;;;;4991698;28;20188;-87
2023/07/17 09:25:26;;;;;;;3.33;1.67;;;22.70;99.90;;;;;;4975176;28;20176;-88
2023/07/17 09:27:52;;;;;;;2.25;1.23;;;22.20;99.90;;;;;;4974745;28;20188;-86
2023/07/17 09:30:23;;;;;;;7.03;1.17;;;22.00;99.90;;;;;;4974304;28;20651;-86
2023/07/17 09:32:50;;;;;;;3.60;1.00;;;21.80;99.90;;;;;;4992200;28;20160;-87
2023/07/17 09:35:22;;;;;;;2.47;1.58;;;21.70;99.90;;;;;;4974110;28;20460;-86
2023/07/17 09:37:48;;;;;;;1.98;0.80;;;22.20;99.90;;;;;;4959327;28;20176;-86
2023/07/17 09:40:18;;;;;;;3.50;1.88;;;23.00;99.90;;;;;;4974481;28;20696;-87
2023/07/17 09:42:50;;;;;;;2.50;1.23;;;24.30;99.90;;;;;;4991138;28;20172;-87
2023/07/17 09:45:18;;;;;;;2.47;1.13;;;24.90;99.90;;;;;;4958853;28;20169;-86
2023/07/17 09:47:46;;;;;;;2.22;1.45;;;22.70;99.90;;;;;;4991248;28;20204;-87
2023/07/17 09:50:13;;;;;;;2.50;1.35;;;22.90;99.90;;;;;;4991125;28;20176;-85
2023/07/17 09:52:42;;;;;;;2.53;1.05;;;23.50;99.90;;;;;;4990800;28;20180;-85
2023/07/17 09:55:08;;;;;;;2.25;1.38;;;22.70;99.90;;;;;;4973698;28;20179;-85
2023/07/17 09:57:35;;;;;;;3.00;1.23;;;21.90;99.90;;;;;;4991183;28;20195;-88
2023/07/17 10:00:04;;;;;;;2.78;1.08;;;21.90;99.90;;;;;;4973666;28;20187;-86
2023/07/17 10:02:39;;;;;;;8.10;1.77;;;21.00;99.90;;;;;;4990883;28;20300;-86
2023/07/17 10:05:05;;;;;;;3.05;1.20;;;21.00;99.90;;;;;;4973771;28;20180;-87
2023/07/17 10:07:35;;;;;;;3.90;1.33;;;21.30;99.90;;;;;;4957826;28;20282;-87
2023/07/17 10:10:03;;;;;;;3.85;1.55;;;21.90;99.90;;;;;;4973793;28;20610;-85
2023/07/17 10:12:30;;;;;;;4.78;1.60;;;22.30;99.90;;;;;;4973931;28;20188;-88
2023/07/17 10:14:57;;;;;;;3.70;1.42;;;22.10;99.90;;;;;;4973830;28;20192;-86
2023/07/17 10:17:36;;;;;;;1.80;1.20;;;22.50;99.90;;;;;;4990340;28;20188;-84
2023/07/17 10:20:07;;;;;;;1.65;1.55;;;23.10;99.90;;;;;;4990614;28;20183;-85
2023/07/17 10:22:44;;;;;;;1.42;1.13;;;23.10;99.90;;;;;;4973386;28;20172;-86
2023/07/17 10:25:18;;;;;;;6.05;1.80;;;23.60;99.90;;;;;;4973535;28;20168;-89
2023/07/17 10:28:03;;;;;;;4.05;1.83;;;23.60;99.90;;;;;;4973588;28;20204;-87
2023/07/17 10:30:38;;;;;;;3.17;1.30;;;23.50;99.90;;;;;;4990434;28;20532;-86
2023/07/17 10:33:11;;;;;;;4.72;1.30;;;22.70;99.90;;;;;;4973235;28;20819;-86
2023/07/17 10:35:49;;;;;;;2.60;1.20;;;23.50;99.90;;;;;;4973427;28;20768;-88
2023/07/17 10:38:26;;;;;;;8.10;1.70;;;22.90;99.90;;;;;;4973533;28;20601;-86
2023/07/17 10:41:03;;;;;;;3.15;1.30;;;23.60;99.90;;;;;;4990662;28;20234;-87
2023/07/17 10:43:29;;;;;;;4.68;1.50;;;23.90;99.90;;;;;;4974094;28;20350;-91
2023/07/17 10:45:54;;;;;;;6.32;2.03;;;24.60;99.90;;;;;;4957475;28;20215;-91
2023/07/17 10:48:25;;;;;;;0.93;0.90;;;24.20;99.90;;;;;;4957643;28;20190;-90
2023/07/17 10:50:53;;;;;;;3.83;1.40;;;23.70;99.90;;;;;;4973921;28;20251;-91
2023/07/17 10:53:19;;;;;;;2.08;1.33;;;23.90;99.90;;;;;;4957679;28;20211;-94
2023/07/17 10:55:48;;;;;;;4.32;1.50;;;23.80;99.90;;;;;;4973653;28;20211;-88
2023/07/17 10:58:14;;;;;;;1.83;1.60;;;23.10;99.90;;;;;;4973693;28;20176;-91
2023/07/17 11:00:42;;;;;;;4.30;2.00;;;23.10;99.90;;;;;;4957007;28;20583;-87
2023/07/17 11:03:08;;;;;;;3.53;1.50;;;23.30;99.90;;;;;;4957112;28;20206;-87
2023/07/17 11:05:40;;;;;;;1.73;1.25;;;23.10;99.90;;;;;;4990000;28;20180;-86
2023/07/17 11:08:12;;;;;;;4.93;1.45;;;22.80;99.90;;;;;;4972853;28;20190;-86
2023/07/17 11:10:41;;;;;;;2.25;1.48;;;22.70;99.90;;;;;;4989470;28;20287;-85
2023/07/17 11:13:07;;;;;;;3.83;1.90;;;22.80;99.90;;;;;;4989433;28;20184;-86
2023/07/17 11:15:35;;;;;;;2.88;1.35;;;22.30;99.90;;;;;;4956331;28;20184;-86
2023/07/17 11:18:02;;;;;;;2.35;1.70;;;22.70;99.90;;;;;;4989988;28;20180;-87
2023/07/17 11:20:30;;;;;;;2.50;1.48;;;23.70;99.90;;;;;;4955996;28;20653;-86
2023/07/17 11:22:56;;;;;;;2.25;1.30;;;23.00;99.90;;;;;;4989995;28;20176;-88
2023/07/17 11:25:26;;;;;;;4.85;1.40;;;23.30;99.90;;;;;;4989655;28;20184;-86
2023/07/17 11:27:53;;;;;;;3.25;1.25;;;22.80;99.90;;;;;;4989569;28;20180;-86
2023/07/17 11:30:21;;;;;;;24.83;5.53;;;22.70;99.90;;;;;;4972288;28;20189;-87
2023/07/17 11:32:59;;;;;;;1.90;1.73;;;22.20;99.90;;;;;;4989525;28;20206;-86
2023/07/17 11:35:43;;;;;;;6.93;1.73;;;22.50;99.90;;;;;;4971760;28;20219;-86
2023/07/17 11:38:14;;;;;;;2.80;1.33;;;22.80;99.90;;;;;;4972255;28;20720;-86
2023/07/17 11:40:49;;;;;;;4.38;1.40;;;22.20;99.90;;;;;;4972031;28;20176;-86
2023/07/17 11:43:23;;;;;;;5.53;1.77;;;21.90;99.90;;;;;;4972244;28;20184;-87
2023/07/17 11:45:49;;;;;;;3.25;1.77;;;21.90;99.90;;;;;;4972541;28;20243;-87
2023/07/17 11:48:14;;;;;;;3.17;1.40;;;22.00;99.90;;;;;;4956611;28;20676;-87
2023/07/17 11:50:41;;;;;;;7.47;1.85;;;22.00;99.90;;;;;;4972703;28;20180;-88
2023/07/17 11:53:10;;;;;;;1.60;1.40;;;22.30;99.90;;;;;;4956663;28;20304;-89
2023/07/17 11:55:38;;;;;;;4.78;1.67;;;21.90;99.90;;;;;;4972781;28;20184;-88
2023/07/17 11:58:25;;;;;;;4.50;2.17;;;22.30;99.90;;;;;;4971687;28;20633;-86
2023/07/17 12:00:53;;;;;;;3.05;1.50;;;21.50;99.90;;;;;;4971720;28;20168;-85
2023/07/17 12:03:19;;;;;;;2.80;1.47;;;21.10;99.90;;;;;;4971699;28;20211;-85
2023/07/17 12:05:46;;;;;;;4.82;2.05;;;21.20;99.90;;;;;;4971484;28;20180;-87
2023/07/17 12:08:12;;;;;;;2.03;1.53;;;21.70;99.90;;;;;;4971331;28;20228;-86
2023/07/17 12:10:38;;;;;;;1.77;0.80;;;21.70;99.90;;;;;;4971681;28;20188;-86
2023/07/17 12:13:05;;;;;;;1.90;1.23;;;21.60;99.90;;;;;;4971544;28;20198;-86
2023/07/17 12:15:31;;;;;;;4.03;1.53;;;21.30;99.90;;;;;;4971959;28;20335;-86
2023/07/17 12:17:58;;;;;;;2.80;1.30;;;20.90;99.90;;;;;;4993079;28;20643;-88
2023/07/17 12:20:24;;;;;;;5.67;1.83;;;20.90;99.90;;;;;;4993537;28;20180;-87
2023/07/17 12:22:52;;;;;;;2.70;1.60;;;20.70;99.90;;;;;;4975782;28;20641;-87
2023/07/17 12:25:18;;;;;;;2.20;1.20;;;21.00;99.90;;;;;;4992954;28;20301;-86
2023/07/17 12:27:45;;;;;;;6.30;1.30;;;21.30;99.90;;;;;;4992164;28;20295;-86
2023/07/17 12:30:12;;;;;;;2.80;1.50;;;21.20;99.90;;;;;;4975484;28;20323;-86
2023/07/17 12:32:38;;;;;;;2.37;1.60;;;21.30;99.90;;;;;;4992658;28;20219;-87
2023/07/17 12:35:07;;;;;;;4.40;1.40;;;21.70;99.90;;;;;;4957777;28;20229;-86
2023/07/17 12:37:33;;;;;;;2.70;1.47;;;21.80;99.90;;;;;;4954119;28;20255;-87
2023/07/17 12:39:59;;;;;;;1.57;1.10;;;21.90;99.90;;;;;;4939675;28;20562;-86
2023/07/17 12:42:25;;;;;;;2.65;1.60;;;21.80;99.90;;;;;;4939509;28;20215;-86
2023/07/17 12:44:51;;;;;;;2.73;1.77;;;21.70;99.90;;;;;;4955375;28;20169;-85
2023/07/17 12:47:17;;;;;;;3.63;1.63;;;21.70;99.90;;;;;;4954695;28;20214;-86
2023/07/17 12:49:43;;;;;;;3.67;1.83;;;21.60;99.90;;;;;;4955324;28;20688;-86
2023/07/17 12:52:09;;;;;;;4.63;1.50;;;21.30;99.90;;;;;;4955821;28;20179;-87
2023/07/17 12:54:35;;;;;;;3.10;1.40;;;21.50;99.90;;;;;;4955099;28;20195;-86